Time;durP1;ratioP1;P1;durP2;ratioP2;P2;SDS_P1;SDS_P2;PMS_P1;PMS_P2;Temp;Humidity;BMP_temperature;BMP_pressure;BME280_temperature;BME280_humidity;BME280_pressure;Samples;Min_cycle;Max_cycle;Signal;HPM_P1;HPM_P2
2021/08/28 00:00:13;;;;;;;2.50;1.90;;;;;;;12.68;100.00;101017.81;4926933;28;20044;-90
2021/08/28 00:02:43;;;;;;;2.83;2.53;;;;;;;12.66;100.00;101013.47;4962897;28;20133;-88
2021/08/28 00:05:12;;;;;;;2.30;2.00;;;;;;;12.64;100.00;101007.38;4967992;28;21185;-90
2021/08/28 00:07:39;;;;;;;3.22;2.30;;;;;;;12.65;100.00;101011.75;4969657;28;20129;-88
2021/08/28 00:10:13;;;;;;;2.42;2.13;;;;;;;12.62;100.00;101014.41;4948461;28;20055;-91
2021/08/28 00:12:40;;;;;;;2.70;1.73;;;;;;;12.61;100.00;101008.28;4938477;28;20619;-90
2021/08/28 00:15:11;;;;;;;2.58;2.47;;;;;;;12.62;100.00;101006.53;4930621;28;20275;-90
2021/08/28 00:17:41;;;;;;;2.08;1.98;;;;;;;12.62;100.00;101009.16;4935342;28;20049;-89
2021/08/28 00:20:15;;;;;;;3.30;2.25;;;;;;;12.60;100.00;101003.06;4949774;28;20046;-89
2021/08/28 00:22:44;;;;;;;2.22;2.10;;;;;;;12.60;100.00;101010.94;4964646;28;21229;-89
2021/08/28 00:25:13;;;;;;;2.70;2.35;;;;;;;12.57;100.00;101011.84;4951436;28;20046;-88
2021/08/28 00:27:41;;;;;;;2.60;2.40;;;;;;;12.54;100.00;101012.75;4931557;28;20052;-88
2021/08/28 00:30:09;;;;;;;2.88;2.40;;;;;;;12.50;100.00;101007.53;4948642;28;20104;-89
2021/08/28 00:32:40;;;;;;;2.65;2.55;;;;;;;12.49;100.00;101011.03;4943643;28;20058;-88
2021/08/28 00:35:15;;;;;;;3.22;2.92;;;;;;;12.49;100.00;101011.94;4939596;28;20053;-89
2021/08/28 00:37:50;;;;;;;2.72;2.53;;;;;;;12.51;100.00;101012.75;4973351;28;20059;-87
2021/08/28 00:40:17;;;;;;;3.05;2.70;;;;;;;12.50;100.00;101013.69;4936288;28;20057;-90
2021/08/28 00:42:52;;;;;;;2.75;2.55;;;;;;;12.48;100.00;101007.56;4951465;28;20062;-88
2021/08/28 00:45:44;;;;;;;2.83;2.13;;;;;;;12.48;100.00;101004.94;4949089;28;20074;-88
2021/08/28 00:48:20;;;;;;;3.85;3.17;;;;;;;12.49;100.00;101011.94;4940502;28;20093;-89
2021/08/28 00:50:47;;;;;;;2.75;2.35;;;;;;;12.48;100.00;101004.94;4951082;28;20085;-90
2021/08/28 00:53:18;;;;;;;2.55;2.35;;;;;;;12.50;100.00;101011.06;4948297;28;20421;-91
2021/08/28 00:55:49;;;;;;;4.40;3.20;;;;;;;12.53;100.00;101015.41;4956667;28;20616;-92
2021/08/28 00:58:22;;;;;;;3.25;3.05;;;;;;;12.54;100.00;101011.84;4949982;28;20144;-89
2021/08/28 01:01:12;;;;;;;3.25;3.00;;;;;;;12.53;100.00;101013.63;4922774;28;20512;-90
2021/08/28 01:03:45;;;;;;;3.90;3.28;;;;;;;12.54;100.00;101014.50;4942202;28;20499;-89
2021/08/28 01:06:36;;;;;;;3.60;3.30;;;;;;;12.52;100.00;101018.91;4969130;28;20283;-87
2021/08/28 01:09:16;;;;;;;3.85;3.22;;;;;;;12.49;100.00;101027.69;4951700;28;20044;-91
2021/08/28 01:12:07;;;;;;;3.78;3.42;;;;;;;12.47;100.00;101020.72;4951516;28;20702;-91
2021/08/28 01:14:49;;;;;;;5.75;4.30;;;;;;;12.45;100.00;101025.09;4943905;28;20922;-91
2021/08/28 01:17:20;;;;;;;4.93;3.55;;;;;;;12.41;100.00;101019.00;4970136;28;20104;-89
2021/08/28 01:20:08;;;;;;;4.15;3.80;;;;;;;12.35;100.00;101022.56;4969337;28;20073;-92
2021/08/28 01:22:38;;;;;;;4.50;3.95;;;;;;;12.32;100.00;101025.25;4947873;28;20058;-88
2021/08/28 01:25:06;;;;;;;4.90;3.72;;;;;;;12.31;100.00;101025.25;4956872;28;20493;-90
2021/08/28 01:27:43;;;;;;;4.75;4.38;;;;;;;12.29;100.00;101019.16;4948507;28;20046;-91
2021/08/28 01:30:14;;;;;;;4.85;3.97;;;;;;;12.28;100.00;101020.91;4952535;28;20096;-89
2021/08/28 01:32:46;;;;;;;7.00;4.30;;;;;;;12.28;100.00;101025.28;4947612;28;20050;-89
2021/08/28 01:35:15;;;;;;;5.72;5.10;;;;;;;12.25;100.00;101020.91;4954908;28;20926;-90
2021/08/28 01:37:45;;;;;;;5.15;4.68;;;;;;;12.24;100.00;101022.69;4958234;28;20046;-89
2021/08/28 01:40:14;;;;;;;4.85;4.32;;;;;;;12.21;100.00;101016.59;4961513;28;20039;-87
2021/08/28 01:42:42;;;;;;;5.60;4.95;;;;;;;12.21;100.00;101020.06;4952089;28;20205;-86
2021/08/28 01:45:14;;;;;;;5.35;4.47;;;;;;;12.20;100.00;101028.84;4950813;28;20086;-91
2021/08/28 01:47:43;;;;;;;7.03;5.10;;;;;;;12.20;100.00;101023.59;4955275;28;20060;-87
2021/08/28 01:50:11;;;;;;;4.93;4.43;;;;;;;12.22;100.00;101018.34;4954643;28;20090;-88
2021/08/28 01:52:49;;;;;;;5.50;4.32;;;;;;;12.22;100.00;101010.47;4951478;28;20058;-88
2021/08/28 01:55:18;;;;;;;4.95;4.55;;;;;;;12.24;100.00;101019.19;4974187;28;20957;-89
2021/08/28 01:57:46;;;;;;;4.85;4.55;;;;;;;12.24;100.00;101019.19;4953563;28;20650;-87
2021/08/28 02:00:14;;;;;;;4.57;3.60;;;;;;;12.26;100.00;101024.44;4970858;28;20130;-93
2021/08/28 02:02:42;;;;;;;4.80;4.40;;;;;;;12.27;100.00;101013.91;4953579;28;20038;-89
2021/08/28 02:05:15;;;;;;;5.63;4.97;;;;;;;12.31;100.00;101023.50;4942366;28;20050;-87
2021/08/28 02:08:04;;;;;;;4.25;3.90;;;;;;;12.33;100.00;101024.34;4965307;28;20399;-91
2021/08/28 02:11:09;;;;;;;5.53;5.03;;;;;;;12.37;100.00;101031.31;4968845;28;20137;-88
2021/08/28 02:13:48;;;;;;;4.97;4.50;;;;;;;12.38;100.00;101017.31;4973928;28;20636;-84
2021/08/28 02:16:19;;;;;;;4.68;4.28;;;;;;;12.42;100.00;101018.13;4955114;28;20105;-92
2021/08/28 02:19:12;;;;;;;5.72;4.72;;;;;;;12.45;100.00;101010.22;4964692;28;20054;-87
2021/08/28 02:21:49;;;;;;;8.57;6.45;;;;;;;12.49;100.00;101016.28;4949822;28;20430;-87
2021/08/28 02:24:27;;;;;;;5.97;5.05;;;;;;;12.52;100.00;101016.28;4942737;28;20046;-91
2021/08/28 02:27:11;;;;;;;6.50;5.00;;;;;;;12.52;100.00;101014.50;4955724;28;20054;-91
2021/08/28 02:29:49;;;;;;;7.57;5.90;;;;;;;12.53;100.00;101013.63;4956818;28;20051;-88
2021/08/28 02:32:24;;;;;;;6.22;5.68;;;;;;;12.53;100.00;101007.53;4946627;28;20674;-90
2021/08/28 02:35:01;;;;;;;7.13;6.40;;;;;;;12.56;100.00;101012.72;4950536;28;20101;-89
2021/08/28 02:37:33;;;;;;;16.70;5.32;;;;;;;12.54;100.00;101009.22;4957259;28;20761;-87
2021/08/28 02:40:07;;;;;;;5.63;5.07;;;;;;;12.53;100.00;100999.66;4957115;28;20520;-88
2021/08/28 02:42:34;;;;;;;6.18;5.57;;;;;;;12.52;100.00;101000.53;4941292;28;20062;-87
2021/08/28 02:45:03;;;;;;;6.53;5.90;;;;;;;12.50;100.00;101004.91;4949110;28;20121;-90
2021/08/28 02:47:33;;;;;;;5.60;5.03;;;;;;;12.49;100.00;101004.06;4972043;28;20350;-90
2021/08/28 02:50:02;;;;;;;8.50;6.85;;;;;;;12.45;100.00;100999.72;4976899;28;20121;-90
2021/08/28 02:52:30;;;;;;;7.53;6.80;;;;;;;12.44;100.00;101000.59;4959626;28;20050;-87
2021/08/28 02:55:08;;;;;;;6.88;5.90;;;;;;;12.42;100.00;100997.13;4956428;28;20156;-88
2021/08/28 02:57:36;;;;;;;7.10;6.40;;;;;;;12.40;100.00;101001.53;4958265;28;20045;-88
2021/08/28 03:00:03;;;;;;;7.60;6.30;;;;;;;12.39;100.00;100999.78;4939660;28;20050;-89
2021/08/28 03:02:31;;;;;;;6.97;6.20;;;;;;;12.37;100.00;100994.56;4959761;28;20058;-87
2021/08/28 03:05:09;;;;;;;6.50;5.90;;;;;;;12.37;100.00;100989.31;4974368;28;20500;-89
2021/08/28 03:07:40;;;;;;;7.05;6.30;;;;;;;12.36;100.00;100994.59;4995771;28;20070;-90
2021/08/28 03:10:12;;;;;;;7.57;6.85;;;;;;;12.34;100.00;100989.31;4992347;28;20046;-92
2021/08/28 03:12:40;;;;;;;7.20;6.50;;;;;;;12.34;100.00;100993.72;4980973;28;20064;-91
2021/08/28 03:15:18;;;;;;;6.80;6.18;;;;;;;12.35;100.00;100987.59;4937872;28;20054;-87
2021/08/28 03:17:47;;;;;;;6.03;5.45;;;;;;;12.36;100.00;100991.97;4994319;28;20054;-91
2021/08/28 03:20:16;;;;;;;11.00;7.70;;;;;;;12.35;100.00;100990.22;4986354;28;20046;-90
2021/08/28 03:22:45;;;;;;;8.30;7.20;;;;;;;12.34;100.00;100981.44;4951478;28;20050;-90
2021/08/28 03:25:13;;;;;;;8.50;6.53;;;;;;;12.37;100.00;100983.16;4936567;28;20052;-93
2021/08/28 03:27:41;;;;;;;7.75;6.63;;;;;;;12.35;100.00;100980.56;4950940;28;20183;-92
2021/08/28 03:30:13;;;;;;;9.95;8.57;;;;;;;12.37;100.00;100984.06;4955255;28;20515;-90
2021/08/28 03:32:43;;;;;;;7.30;6.60;;;;;;;12.38;100.00;100985.81;4956913;28;20153;-87
2021/08/28 03:35:15;;;;;;;9.73;7.53;;;;;;;12.37;100.00;100981.44;4946232;28;20108;-90
2021/08/28 03:37:42;;;;;;;9.63;8.63;;;;;;;12.38;100.00;100982.28;4958241;28;20113;-88
2021/08/28 03:40:12;;;;;;;8.75;7.95;;;;;;;12.40;100.00;100975.28;4952347;28;20412;-91
2021/08/28 03:42:40;;;;;;;10.25;7.88;;;;;;;12.41;100.00;100980.50;4954916;28;20147;-86
2021/08/28 03:45:18;;;;;;;9.60;8.60;;;;;;;12.38;100.00;100966.53;4929508;28;20054;-87
2021/08/28 03:47:48;;;;;;;9.48;7.65;;;;;;;12.36;100.00;100978.84;4956403;28;20048;-88
2021/08/28 03:50:15;;;;;;;9.60;8.60;;;;;;;12.35;100.00;100975.31;4976006;28;20062;-89
2021/08/28 03:52:42;;;;;;;11.80;9.93;;;;;;;12.33;100.00;100968.34;4947987;28;20042;-87
2021/08/28 03:55:13;;;;;;;10.65;9.15;;;;;;;12.33;100.00;100973.59;4954216;28;21103;-89
2021/08/28 03:57:42;;;;;;;12.40;10.15;;;;;;;12.32;100.00;100979.72;4949720;28;20060;-90
2021/08/28 04:00:09;;;;;;;13.80;10.05;;;;;;;12.27;100.00;100974.53;4955180;28;20061;-91
2021/08/28 04:02:39;;;;;;;11.60;9.35;;;;;;;12.28;100.00;100983.28;4968500;28;20050;-92
2021/08/28 04:05:06;;;;;;;13.77;10.52;;;;;;;12.27;100.00;100984.16;4944508;28;20646;-90
2021/08/28 04:07:33;;;;;;;12.40;10.30;;;;;;;12.26;100.00;100977.19;4970323;28;20054;-89
2021/08/28 04:10:00;;;;;;;11.13;9.02;;;;;;;12.26;100.00;100977.19;4948517;28;20044;-88
2021/08/28 04:12:30;;;;;;;11.80;9.93;;;;;;;12.26;100.00;100979.81;4954949;28;20097;-92
2021/08/28 04:14:57;;;;;;;14.02;10.93;;;;;;;12.26;100.00;100978.03;4964662;28;20137;-91
2021/08/28 04:17:24;;;;;;;12.13;9.98;;;;;;;12.28;100.00;100981.53;4932885;28;20061;-86
2021/08/28 04:19:51;;;;;;;13.60;11.95;;;;;;;12.32;100.00;100979.72;4964930;28;20108;-89
2021/08/28 04:22:18;;;;;;;14.45;12.10;;;;;;;12.33;100.00;100978.84;4966396;28;20038;-86
2021/08/28 04:24:45;;;;;;;12.13;10.60;;;;;;;12.33;100.00;100982.34;4952423;28;20042;-93
2021/08/28 04:27:15;;;;;;;16.65;12.48;;;;;;;12.32;100.00;100985.88;4955726;28;20073;-90
2021/08/28 04:29:42;;;;;;;13.80;11.27;;;;;;;12.30;100.00;100982.38;4969251;28;20137;-91
2021/08/28 04:32:08;;;;;;;11.57;9.35;;;;;;;12.27;100.00;100992.03;4956789;28;20672;-89
2021/08/28 04:34:35;;;;;;;13.30;10.70;;;;;;;12.23;100.00;100984.19;4933287;28;20053;-93
2021/08/28 04:37:02;;;;;;;13.32;10.35;;;;;;;12.26;100.00;100990.31;4953503;28;20052;-90
2021/08/28 04:39:29;;;;;;;14.70;11.15;;;;;;;12.28;100.00;100992.03;4967071;28;20556;-88
2021/08/28 04:41:56;;;;;;;14.45;11.43;;;;;;;12.32;100.00;100998.09;4972699;28;20046;-89
2021/08/28 04:44:22;;;;;;;16.17;11.25;;;;;;;12.37;100.00;100998.91;4955801;28;20408;-86
2021/08/28 04:46:52;;;;;;;12.68;10.82;;;;;;;12.41;100.00;101008.50;4946617;28;20046;-90
2021/08/28 04:49:22;;;;;;;14.15;10.27;;;;;;;12.45;100.00;101002.34;4938781;28;20784;-88
2021/08/28 04:51:52;;;;;;;11.27;10.07;;;;;;;12.48;100.00;101006.69;4955934;28;20736;-88
2021/08/28 04:54:19;;;;;;;14.90;11.40;;;;;;;12.51;100.00;101012.75;4936638;28;20477;-88
2021/08/28 04:56:48;;;;;;;12.43;9.93;;;;;;;12.55;100.00;101013.59;4957765;28;20076;-86
2021/08/28 04:59:19;;;;;;;9.90;8.77;;;;;;;12.57;100.00;101017.09;4967863;28;21943;-92
2021/08/28 05:01:46;;;;;;;11.20;9.50;;;;;;;12.62;100.00;101014.41;4953263;28;20129;-91
2021/08/28 05:04:15;;;;;;;14.05;10.85;;;;;;;12.67;100.00;101018.72;4951600;28;20049;-91
2021/08/28 05:06:46;;;;;;;12.90;10.45;;;;;;;12.69;100.00;101022.19;4937792;28;20596;-93
2021/08/28 05:19:57;;;;;;;12.02;9.43;;;;;;;12.88;100.00;101024.59;5082366;27;20896;-89
2021/08/28 05:22:24;;;;;;;15.88;10.77;;;;;;;12.89;100.00;101019.34;5074613;28;20089;-86
2021/08/28 05:24:50;;;;;;;14.07;11.70;;;;;;;12.95;100.00;101028.03;5062238;28;20033;-87
2021/08/28 05:27:18;;;;;;;12.15;10.20;;;;;;;12.97;100.00;101027.13;5064096;28;20113;-87
2021/08/28 05:29:48;;;;;;;15.05;9.90;;;;;;;13.00;100.00;101037.59;5040683;28;20109;-89
2021/08/28 05:32:14;;;;;;;13.43;10.05;;;;;;;13.03;100.00;101044.56;5017589;28;20051;-88
2021/08/28 05:34:42;;;;;;;13.00;8.98;;;;;;;13.03;100.00;101041.94;5031648;28;20037;-86
2021/08/28 05:37:12;;;;;;;11.68;10.45;;;;;;;13.03;100.00;101034.91;5021365;28;20041;-90
2021/08/28 05:39:40;;;;;;;13.20;10.07;;;;;;;13.04;100.00;101046.31;5033476;28;20049;-87
2021/08/28 05:42:06;;;;;;;10.85;9.52;;;;;;;13.04;100.00;101035.78;5023493;28;20055;-87
2021/08/28 05:44:33;;;;;;;11.55;9.85;;;;;;;13.02;100.00;101033.19;5005733;28;20049;-89
2021/08/28 05:47:00;;;;;;;12.45;10.27;;;;;;;13.03;100.00;101042.78;5017174;28;20049;-87
2021/08/28 05:49:31;;;;;;;10.85;8.85;;;;;;;13.05;100.00;101051.53;5020424;28;20514;-85
2021/08/28 05:51:58;;;;;;;9.43;8.43;;;;;;;13.08;100.00;101045.38;5017996;28;20182;-87
2021/08/28 05:54:25;;;;;;;8.60;7.80;;;;;;;13.12;100.00;101048.84;5018810;28;20053;-88
2021/08/28 05:56:52;;;;;;;11.20;9.13;;;;;;;13.16;100.00;101046.13;5019188;28;22413;-87
2021/08/28 05:59:19;;;;;;;11.27;9.32;;;;;;;13.21;100.00;101046.94;5033642;28;20045;-87
2021/08/28 06:01:45;;;;;;;9.57;8.57;;;;;;;13.27;100.00;101053.00;5008576;28;20592;-85
2021/08/28 06:04:12;;;;;;;9.45;8.55;;;;;;;13.30;100.00;101047.72;5021632;28;20037;-87
2021/08/28 06:06:39;;;;;;;11.05;9.75;;;;;;;13.28;100.00;101054.75;5031262;28;20045;-86
2021/08/28 06:09:06;;;;;;;10.43;9.20;;;;;;;13.27;100.00;101056.53;5024992;28;20072;-87
2021/08/28 06:11:41;;;;;;;12.55;10.18;;;;;;;13.27;100.00;101051.25;5014927;28;20132;-86
2021/08/28 06:14:07;;;;;;;12.73;10.50;;;;;;;13.28;100.00;101052.97;5025064;28;20049;-86
2021/08/28 06:16:34;;;;;;;11.90;9.27;;;;;;;13.32;100.00;101048.56;5013268;28;20049;-85
2021/08/28 06:19:04;;;;;;;9.35;8.38;;;;;;;13.35;100.00;101045.88;5024674;28;20052;-89
2021/08/28 06:21:33;;;;;;;14.10;9.18;;;;;;;13.36;100.00;101048.53;5013446;28;20049;-87
2021/08/28 06:24:02;;;;;;;9.60;8.13;;;;;;;13.36;100.00;101045.91;5021634;28;20128;-91
2021/08/28 06:26:29;;;;;;;11.13;9.93;;;;;;;13.37;100.00;101046.75;5013135;28;20049;-87
2021/08/28 06:28:56;;;;;;;12.80;8.98;;;;;;;13.38;100.00;101052.00;5005602;28;20128;-85
2021/08/28 06:31:23;;;;;;;9.73;8.75;;;;;;;13.40;100.00;101050.22;5001806;28;20056;-89
2021/08/28 06:33:50;;;;;;;11.07;9.55;;;;;;;13.44;100.00;101052.81;5027799;28;20092;-86
2021/08/28 06:36:16;;;;;;;10.75;8.30;;;;;;;13.48;100.00;101059.75;5023001;28;20085;-90
2021/08/28 06:38:43;;;;;;;11.05;9.90;;;;;;;13.53;100.00;101057.91;5026847;28;20759;-86
2021/08/28 06:41:10;;;;;;;14.75;9.93;;;;;;;13.64;100.00;101063.03;5011255;28;20098;-87
2021/08/28 06:43:38;;;;;;;13.93;10.85;;;;;;;13.75;100.00;101065.50;5029960;28;20053;-90
2021/08/28 06:46:07;;;;;;;10.90;9.80;;;;;;;13.88;100.00;101059.16;5008641;28;20056;-87
2021/08/28 06:48:34;;;;;;;12.90;10.15;;;;;;;13.98;100.00;101054.63;5028180;28;20123;-87
2021/08/28 06:51:01;;;;;;;10.00;9.00;;;;;;;14.07;100.00;101049.19;5012493;28;20048;-91
2021/08/28 06:53:27;;;;;;;10.82;9.27;;;;;;;14.16;100.00;101051.66;5022520;28;20095;-87
2021/08/28 06:55:54;;;;;;;15.77;10.35;;;;;;;14.27;100.00;101050.59;5032613;28;20136;-88
2021/08/28 06:58:21;;;;;;;8.88;7.90;;;;;;;14.35;100.00;101060.13;5025144;28;20041;-89
2021/08/28 07:00:50;;;;;;;10.50;9.48;;;;;;;14.37;100.00;101050.41;5025728;28;20483;-87
2021/08/28 07:03:17;;;;;;;11.02;8.40;;;;;;;14.41;100.00;101063.53;5030510;28;20073;-88
2021/08/28 07:05:47;;;;;;;11.95;9.48;;;;;;;14.43;100.00;101059.97;5019013;28;20049;-89
2021/08/28 07:08:15;;;;;;;10.82;9.60;;;;;;;14.46;100.00;101061.69;5029353;28;20124;-90
2021/08/28 07:10:43;;;;;;;9.40;8.45;;;;;;;14.45;100.00;101066.06;5026510;28;20056;-84
2021/08/28 07:13:13;;;;;;;9.82;8.57;;;;;;;14.45;100.00;101062.56;5027631;28;20051;-88
2021/08/28 07:15:42;;;;;;;10.98;9.32;;;;;;;14.50;100.00;101064.22;5026435;28;20430;-88
2021/08/28 07:18:10;;;;;;;10.68;9.07;;;;;;;14.60;100.00;101066.66;5005720;28;20167;-87
2021/08/28 07:20:37;;;;;;;11.68;9.88;;;;;;;14.70;100.00;101070.91;5026831;28;20056;-88
2021/08/28 07:23:14;;;;;;;10.57;9.43;;;;;;;14.79;99.42;101070.72;5023332;28;20049;-89
2021/08/28 07:25:43;;;;;;;11.30;9.23;;;;;;;14.87;99.13;101071.44;5027406;28;20053;-88
2021/08/28 07:28:16;;;;;;;9.25;8.30;;;;;;;14.88;98.40;101067.03;5013448;28;20107;-86
2021/08/28 07:30:43;;;;;;;9.27;8.38;;;;;;;14.89;98.26;101074.91;5043558;28;20175;-87
2021/08/28 07:33:10;;;;;;;8.45;7.55;;;;;;;14.97;97.74;101069.47;5038560;28;20064;-86
2021/08/28 07:35:36;;;;;;;8.38;7.47;;;;;;;15.15;97.62;101073.50;5027895;28;20043;-88
2021/08/28 07:38:04;;;;;;;8.43;6.53;;;;;;;15.37;97.11;101076.53;5028525;28;20495;-85
2021/08/28 07:40:31;;;;;;;9.05;6.38;;;;;;;15.54;96.25;101062.97;5004466;28;20383;-88
2021/08/28 07:43:00;;;;;;;8.82;7.93;;;;;;;15.68;95.16;101070.56;5025413;28;20045;-88
2021/08/28 07:45:28;;;;;;;10.80;8.82;;;;;;;15.72;94.77;101063.44;5007464;28;20108;-87
2021/08/28 07:47:57;;;;;;;9.65;7.75;;;;;;;15.79;94.68;101070.31;5005182;28;20650;-88
2021/08/28 07:50:24;;;;;;;7.82;7.13;;;;;;;15.81;94.03;101065.91;5006149;28;20081;-87
2021/08/28 07:52:51;;;;;;;12.25;8.98;;;;;;;15.84;93.44;101067.59;4984037;28;20259;-87
2021/08/28 07:55:18;;;;;;;8.10;7.30;;;;;;;15.90;93.45;101071.84;4987848;28;20143;-87
2021/08/28 07:57:48;;;;;;;9.20;8.13;;;;;;;15.98;93.19;101073.41;4991049;28;20053;-86
2021/08/28 08:00:16;;;;;;;8.27;7.05;;;;;;;16.10;92.34;101066.06;5000227;28;20136;-85
2021/08/28 08:02:43;;;;;;;9.93;7.55;;;;;;;16.27;91.99;101065.63;5004995;28;20084;-86
2021/08/28 08:05:10;;;;;;;11.75;8.55;;;;;;;16.50;91.05;101072.97;5004710;28;20383;-87
2021/08/28 08:07:37;;;;;;;8.27;7.47;;;;;;;16.80;90.34;101065.09;5007278;28;20488;-87
2021/08/28 08:10:07;;;;;;;8.57;7.07;;;;;;;17.16;88.54;101068.47;5007475;28;20758;-86
2021/08/28 08:12:35;;;;;;;9.25;8.35;;;;;;;17.51;85.99;101070.97;5002049;28;20063;-85
2021/08/28 08:15:05;;;;;;;8.48;7.13;;;;;;;17.65;84.77;101076.69;5006004;28;20053;-85
2021/08/28 08:17:32;;;;;;;7.65;6.78;;;;;;;17.68;84.33;101079.22;5006504;28;20883;-87
2021/08/28 08:20:01;;;;;;;6.75;6.15;;;;;;;17.73;83.23;101080.88;5006289;28;20060;-86
2021/08/28 08:22:32;;;;;;;7.43;6.72;;;;;;;17.66;83.13;101081.09;4991228;28;20053;-89
2021/08/28 08:25:01;;;;;;;8.13;7.07;;;;;;;17.67;83.17;101084.59;4986169;28;20049;-87
2021/08/28 08:27:28;;;;;;;6.55;5.95;;;;;;;17.66;83.36;101088.13;4991713;28;20658;-86
2021/08/28 08:29:55;;;;;;;10.98;7.80;;;;;;;17.66;83.35;101089.03;4985133;28;20140;-88
2021/08/28 08:32:26;;;;;;;6.95;6.25;;;;;;;17.96;82.66;101085.44;4974289;28;20084;-87
2021/08/28 08:34:58;;;;;;;6.75;6.15;;;;;;;18.26;80.45;101088.84;5000772;28;20099;-90
2021/08/28 08:37:25;;;;;;;6.88;6.13;;;;;;;18.28;79.65;101087.03;4993173;28;20053;-86
2021/08/28 08:39:52;;;;;;;7.68;6.75;;;;;;;18.30;79.35;101082.56;5011819;28;20042;-87
2021/08/28 08:42:40;;;;;;;;;;;;;;;;;;;;;
2021/08/28 08:45:09;;;;;;;4.97;4.50;;;;;;;18.71;77.44;101084.66;5005144;28;20472;-87
2021/08/28 08:47:38;;;;;;;7.88;5.78;;;;;;;18.84;76.84;101080.63;5017117;28;20063;-87
2021/08/28 08:50:07;;;;;;;6.55;5.10;;;;;;;18.74;76.62;101083.69;5005377;28;20069;-86
2021/08/28 08:52:38;;;;;;;6.75;5.72;;;;;;;18.60;76.73;101086.81;5005594;28;20131;-87
2021/08/28 08:55:05;;;;;;;5.97;5.47;;;;;;;18.51;76.28;101080.94;5001312;28;20053;-88
2021/08/28 08:57:33;;;;;;;6.28;5.65;;;;;;;18.34;76.86;101081.53;5005901;28;20060;-87
2021/08/28 09:00:00;;;;;;;6.05;5.45;;;;;;;18.18;77.74;101090.91;5009146;28;20152;-88
2021/08/28 09:02:28;;;;;;;6.40;5.20;;;;;;;18.07;77.96;101091.28;5003717;28;20053;-88
2021/08/28 09:04:55;;;;;;;6.50;5.85;;;;;;;18.01;78.46;101091.47;4983457;28;20049;-87
2021/08/28 09:07:22;;;;;;;6.07;5.32;;;;;;;17.99;78.60;101094.16;5005308;28;20048;-86
2021/08/28 09:09:55;;;;;;;6.28;5.68;;;;;;;18.02;78.42;101098.50;4978865;28;20068;-87
2021/08/28 09:12:21;;;;;;;6.83;5.07;;;;;;;18.04;78.72;101098.44;5002513;28;20045;-87
2021/08/28 09:14:58;;;;;;;5.90;5.13;;;;;;;17.91;78.79;101106.75;4995652;28;20050;-87
2021/08/28 09:17:24;;;;;;;5.03;4.53;;;;;;;17.73;79.52;101102.94;5020352;28;20117;-87
2021/08/28 09:19:52;;;;;;;6.50;5.25;;;;;;;17.52;80.12;101107.09;5016515;28;22150;-87
2021/08/28 09:22:27;;;;;;;5.63;4.75;;;;;;;17.35;80.76;101104.97;5006885;28;20041;-89
2021/08/28 09:25:07;;;;;;;5.97;5.47;;;;;;;17.25;81.30;101103.50;4994409;28;20049;-87
2021/08/28 09:27:50;;;;;;;5.65;5.15;;;;;;;17.15;81.31;101109.06;5028377;28;20045;-90
2021/08/28 09:30:35;;;;;;;6.38;4.97;;;;;;;17.20;82.02;101095.72;5003014;28;20053;-87
2021/08/28 09:33:34;;;;;;;5.45;4.95;;;;;;;17.38;81.70;101102.25;4992846;28;20266;-88
2021/08/28 09:36:04;;;;;;;5.20;4.32;;;;;;;17.75;80.69;101102.88;4991022;28;20057;-88
2021/08/28 09:38:39;;;;;;;4.75;4.28;;;;;;;18.06;78.41;101096.63;5006376;28;20045;-88
2021/08/28 09:41:09;;;;;;;4.30;3.90;;;;;;;18.30;77.32;101090.50;5003468;28;20560;-86
2021/08/28 09:43:38;;;;;;;3.30;3.00;;;;;;;18.85;76.18;101095.63;4999700;28;20413;-89
2021/08/28 09:46:10;;;;;;;4.70;4.28;;;;;;;19.22;74.13;101095.22;4990528;28;20076;-86
2021/08/28 09:48:39;;;;;;;4.78;3.45;;;;;;;19.21;73.83;101093.47;4990434;28;20116;-85
2021/08/28 09:51:11;;;;;;;4.50;3.80;;;;;;;18.94;74.65;101089.16;5010254;28;20060;-88
2021/08/28 09:53:39;;;;;;;2.25;2.15;;;;;;;18.43;76.80;101095.38;5003096;28;20065;-87
2021/08/28 09:56:07;;;;;;;3.63;3.33;;;;;;;18.06;78.87;101100.13;5015403;28;20045;-84
2021/08/28 09:58:34;;;;;;;3.10;2.08;;;;;;;17.75;79.66;101108.16;5004263;28;20064;-86
2021/08/28 10:01:06;;;;;;;1.90;1.80;;;;;;;17.49;81.16;101102.75;4999571;28;20041;-87
2021/08/28 10:03:34;;;;;;;2.50;2.30;;;;;;;17.28;82.60;101095.50;5009892;28;20049;-89
2021/08/28 10:06:02;;;;;;;2.65;2.45;;;;;;;17.08;82.97;101106.63;5007301;28;20049;-84
2021/08/28 10:08:32;;;;;;;2.40;2.20;;;;;;;16.92;84.11;101095.63;5009951;28;20049;-86
2021/08/28 10:11:01;;;;;;;4.25;2.40;;;;;;;16.96;84.19;101103.44;4997358;28;20109;-84
2021/08/28 10:13:32;;;;;;;2.00;1.88;;;;;;;17.05;83.98;101109.38;5003160;28;20233;-87
2021/08/28 10:16:04;;;;;;;2.25;2.15;;;;;;;17.08;83.73;101110.16;4998429;28;20051;-86
2021/08/28 10:18:34;;;;;;;2.80;2.60;;;;;;;17.07;83.74;101103.13;5007940;28;20058;-87
2021/08/28 10:21:03;;;;;;;2.40;2.30;;;;;;;16.98;84.41;101098.97;5010107;28;20065;-88
2021/08/28 10:23:32;;;;;;;2.85;2.58;;;;;;;16.99;84.42;101103.34;5006293;28;20063;-85
2021/08/28 10:25:59;;;;;;;2.50;2.30;;;;;;;17.11;84.47;101095.97;5011859;28;20049;-86
2021/08/28 10:28:28;;;;;;;2.55;2.35;;;;;;;17.30;83.82;101098.94;4993428;28;20049;-86
2021/08/28 10:30:56;;;;;;;4.72;3.97;;;;;;;17.53;82.80;101092.94;4990966;28;20077;-88
2021/08/28 10:33:23;;;;;;;3.08;2.88;;;;;;;17.61;82.07;101098.00;5032818;28;20049;-83
2021/08/28 10:35:49;;;;;;;3.97;2.60;;;;;;;17.62;82.11;101099.75;4996842;28;20073;-85
2021/08/28 10:38:17;;;;;;;2.60;2.40;;;;;;;17.49;81.80;101097.47;5011006;28;20121;-87
2021/08/28 10:40:45;;;;;;;5.38;3.85;;;;;;;17.32;82.50;101103.28;5029972;28;20800;-86
2021/08/28 10:43:16;;;;;;;2.97;2.78;;;;;;;17.20;83.15;101101.84;5002211;28;20060;-87
2021/08/28 10:45:51;;;;;;;6.57;4.93;;;;;;;17.10;83.85;101105.69;5008601;28;20056;-87
2021/08/28 10:48:19;;;;;;;3.78;3.47;;;;;;;17.14;84.18;101101.16;4988492;28;20164;-87
2021/08/28 10:50:58;;;;;;;5.47;2.55;;;;;;;17.22;83.60;101107.09;5012771;28;20072;-89
2021/08/28 10:53:25;;;;;;;4.75;3.70;;;;;;;17.32;83.83;101107.72;4989873;28;20041;-86
2021/08/28 10:55:52;;;;;;;4.20;3.88;;;;;;;17.40;83.40;101112.78;5023307;28;20057;-88
2021/08/28 10:58:24;;;;;;;4.13;3.65;;;;;;;17.49;83.07;101104.53;5008697;28;20045;-87
2021/08/28 11:00:54;;;;;;;3.72;3.42;;;;;;;17.78;82.30;101102.78;5001930;28;20106;-86
2021/08/28 11:03:32;;;;;;;4.28;3.97;;;;;;;18.13;80.39;101100.78;5006215;28;20049;-88
2021/08/28 11:06:17;;;;;;;4.70;4.03;;;;;;;18.43;79.25;101098.88;5002787;28;20045;-89
2021/08/28 11:08:52;;;;;;;3.90;3.60;;;;;;;18.98;77.86;101095.19;5002720;28;20045;-86
2021/08/28 11:11:30;;;;;;;3.95;3.65;;;;;;;19.82;74.65;101104.38;5008566;28;20045;-85
2021/08/28 11:14:09;;;;;;;4.05;3.75;;;;;;;20.36;71.11;101101.25;5005355;28;20295;-88
2021/08/28 11:16:42;;;;;;;5.60;5.03;;;;;;;20.52;71.56;101089.97;5006508;28;20060;-88
2021/08/28 11:19:12;;;;;;;4.00;3.65;;;;;;;20.53;71.30;101086.38;5002775;28;20065;-88
2021/08/28 11:21:46;;;;;;;4.72;4.32;;;;;;;20.50;71.21;101095.34;5004865;28;20056;-87
2021/08/28 11:24:15;;;;;;;5.07;4.18;;;;;;;20.55;70.98;101089.84;4999280;28;20151;-86
2021/08/28 11:26:42;;;;;;;5.07;4.68;;;;;;;20.81;70.10;101088.72;4991556;28;20041;-88
2021/08/28 11:29:25;;;;;;;5.18;4.68;;;;;;;21.04;67.70;101089.47;5022002;28;20085;-87
2021/08/28 11:32:17;;;;;;;3.90;3.63;;;;;;;21.15;68.83;101079.19;5000952;28;20443;-86
2021/08/28 11:35:00;;;;;;;4.70;4.30;;;;;;;21.20;67.41;101076.28;5039131;28;21152;-88
2021/08/28 11:37:27;;;;;;;5.13;4.13;;;;;;;21.15;67.83;101076.53;4987726;28;20045;-85
2021/08/28 11:39:58;;;;;;;5.38;4.88;;;;;;;21.38;67.47;101077.22;5022896;28;20049;-85
2021/08/28 11:42:27;;;;;;;5.10;4.70;;;;;;;22.18;64.15;101076.00;4989351;28;20064;-86
2021/08/28 11:44:56;;;;;;;5.10;4.60;;;;;;;23.11;61.05;101069.34;5007241;28;20124;-88